Time;durP1;ratioP1;P1;durP2;ratioP2;P2;SDS_P1;SDS_P2;PMS_P1;PMS_P2;Temp;Humidity;BMP_temperature;BMP_pressure;BME280_temperature;BME280_humidity;BME280_pressure;Samples;Min_cycle;Max_cycle;Signal;HPM_P1;HPM_P2
2022/12/24 00:01:50;;;;;;;10.20;8.43;;;;;;;-145.23;100.00;58621.06;5045788;28;20239;-55
2022/12/24 00:04:16;;;;;;;10.40;8.10;;;;;;;-145.23;100.00;58621.06;5038889;28;20243;-54
2022/12/24 00:06:43;;;;;;;10.73;8.60;;;;;;;-145.23;100.00;58621.06;5039907;28;20242;-53
2022/12/24 00:09:10;;;;;;;11.83;8.17;;;;;;;-145.23;100.00;58621.06;5042646;28;20275;-54
2022/12/24 00:11:36;;;;;;;10.67;7.90;;;;;;;-145.23;100.00;58621.06;5041087;28;20359;-54
2022/12/24 00:14:03;;;;;;;11.10;7.93;;;;;;;-145.23;100.00;58621.06;5043061;28;20258;-54
2022/12/24 00:16:31;;;;;;;12.13;8.77;;;;;;;-145.23;100.00;58621.06;5041741;28;20315;-54
2022/12/24 00:18:57;;;;;;;11.97;9.07;;;;;;;-145.23;100.00;58621.06;5040447;28;20225;-55
2022/12/24 00:21:24;;;;;;;14.60;8.80;;;;;;;-145.23;100.00;58621.06;5041806;28;20228;-55
2022/12/24 00:23:50;;;;;;;12.57;9.03;;;;;;;-145.23;100.00;58621.06;5038218;28;20255;-54
2022/12/24 00:26:17;;;;;;;11.53;7.93;;;;;;;-145.23;100.00;58621.06;5041281;28;20235;-54
2022/12/24 00:28:44;;;;;;;11.80;8.73;;;;;;;-145.23;100.00;58621.06;5039967;28;20223;-55
2022/12/24 00:31:12;;;;;;;13.57;8.57;;;;;;;-145.23;100.00;58621.06;5034114;28;20231;-54
2022/12/24 00:33:40;;;;;;;10.40;8.37;;;;;;;-145.23;100.00;58621.06;5039988;28;20335;-55
2022/12/24 00:36:08;;;;;;;12.90;8.53;;;;;;;-145.23;100.00;58621.06;5041707;28;20319;-54
2022/12/24 00:38:35;;;;;;;14.43;8.00;;;;;;;-145.23;100.00;58621.06;5039357;28;20643;-54
2022/12/24 00:41:02;;;;;;;11.60;9.07;;;;;;;-145.23;100.00;58621.06;5042964;28;20318;-55
2022/12/24 00:43:29;;;;;;;11.47;7.67;;;;;;;-145.23;100.00;58621.06;5040629;28;20625;-54
2022/12/24 00:45:58;;;;;;;8.17;6.90;;;;;;;-145.23;100.00;58621.06;5041078;28;20231;-54
2022/12/24 00:48:24;;;;;;;9.20;7.23;;;;;;;-145.23;100.00;58621.06;5036660;28;20240;-53
2022/12/24 00:50:52;;;;;;;8.53;6.67;;;;;;;-145.23;100.00;58621.06;5047800;28;20238;-54
2022/12/24 00:53:19;;;;;;;7.70;6.83;;;;;;;-145.23;100.00;58621.06;5041156;28;20349;-56
2022/12/24 00:55:45;;;;;;;9.93;8.07;;;;;;;-145.23;100.00;58621.06;5036774;28;20247;-55
2022/12/24 00:58:12;;;;;;;10.07;7.07;;;;;;;-145.23;100.00;58621.06;5034666;28;20363;-54
2022/12/24 01:00:39;;;;;;;8.23;6.90;;;;;;;-145.23;100.00;58621.06;5022315;28;20653;-54
2022/12/24 01:03:06;;;;;;;11.97;7.43;;;;;;;-145.23;100.00;58621.06;5035075;28;20235;-54
2022/12/24 01:05:32;;;;;;;12.37;6.83;;;;;;;-145.23;100.00;58621.06;5042937;28;20313;-55
2022/12/24 01:08:00;;;;;;;9.83;7.23;;;;;;;-145.23;100.00;58621.06;5039015;28;20311;-53
2022/12/24 01:10:27;;;;;;;9.20;6.73;;;;;;;-145.23;100.00;58621.06;5040227;28;20319;-55
2022/12/24 01:12:54;;;;;;;9.77;7.47;;;;;;;-145.23;100.00;58621.06;5038539;28;20784;-55
2022/12/24 01:15:21;;;;;;;12.17;7.20;;;;;;;-145.23;100.00;58621.06;5025031;28;20327;-54
2022/12/24 01:17:48;;;;;;;11.07;7.63;;;;;;;-145.23;100.00;58621.06;5039039;28;20236;-54
2022/12/24 01:20:17;;;;;;;9.40;7.90;;;;;;;-145.23;100.00;58621.06;5042281;28;20235;-54
2022/12/24 01:22:43;;;;;;;10.53;7.40;;;;;;;-145.23;100.00;58621.06;5039502;28;20316;-55
2022/12/24 01:25:12;;;;;;;11.20;7.53;;;;;;;-145.23;100.00;58621.06;5040086;28;20242;-53
2022/12/24 01:27:39;;;;;;;9.23;7.53;;;;;;;-145.23;100.00;58621.06;5039673;28;20729;-54
2022/12/24 01:30:08;;;;;;;11.63;8.37;;;;;;;-145.23;100.00;58621.06;5041557;28;20238;-54
2022/12/24 01:32:35;;;;;;;11.43;8.37;;;;;;;-145.23;100.00;58621.06;5034430;28;20243;-54
2022/12/24 01:35:02;;;;;;;10.47;8.00;;;;;;;-145.23;100.00;58621.06;5035862;28;20697;-53
2022/12/24 01:37:29;;;;;;;8.47;7.27;;;;;;;-145.23;100.00;58621.06;5035197;28;20244;-54
2022/12/24 01:43:22;;;;;;;9.43;7.40;;;;;;;-145.23;100.00;58621.06;5038045;28;20236;-53
2022/12/24 01:45:45;;;;;;;12.20;8.03;;;;;;;-145.23;100.00;58621.06;5032661;28;20247;-54
2022/12/24 01:48:19;;;;;;;8.93;7.63;;;;;;;-145.23;100.00;58621.06;5035195;28;20239;-54
2022/12/24 01:50:46;;;;;;;9.03;7.33;;;;;;;-145.23;100.00;58621.06;5040775;28;20235;-54
2022/12/24 01:53:14;;;;;;;11.13;7.30;;;;;;;-145.23;100.00;58621.06;5046324;28;20243;-52
2022/12/24 01:55:41;;;;;;;8.83;7.93;;;;;;;-145.23;100.00;58621.06;5041803;28;20267;-59
2022/12/24 01:58:11;;;;;;;10.00;8.97;;;;;;;-145.23;100.00;58621.06;5038327;28;20224;-54
2022/12/24 02:00:38;;;;;;;11.97;8.23;;;;;;;-145.23;100.00;58621.06;5036649;28;20236;-53
2022/12/24 02:03:05;;;;;;;13.13;8.70;;;;;;;-145.23;100.00;58621.06;5034994;28;20341;-53
2022/12/24 02:05:35;;;;;;;10.20;8.50;;;;;;;-145.23;100.00;58621.06;5031426;28;20256;-53
2022/12/24 02:08:03;;;;;;;9.67;7.63;;;;;;;-145.23;100.00;58621.06;5033849;28;20235;-53
2022/12/24 02:10:31;;;;;;;7.60;6.60;;;;;;;-145.23;100.00;58621.06;5038127;28;20227;-53
2022/12/24 02:12:58;;;;;;;11.93;8.57;;;;;;;-145.23;100.00;58621.06;5039005;28;20637;-54
2022/12/24 02:15:29;;;;;;;12.17;8.97;;;;;;;-145.23;100.00;58621.06;5039174;28;20227;-53
2022/12/24 02:18:00;;;;;;;11.50;8.13;;;;;;;-145.23;100.00;58621.06;5040993;28;20236;-53
2022/12/24 02:21:21;;;;;;;10.50;7.67;;;;;;;-145.23;100.00;58621.06;5039923;28;20238;-55
2022/12/24 02:24:03;;;;;;;9.43;8.13;;;;;;;-145.23;100.00;58621.06;4991816;28;20239;-54
2022/12/24 02:26:43;;;;;;;10.60;8.30;;;;;;;-145.23;100.00;58621.06;5041428;28;20332;-54
2022/12/24 02:29:27;;;;;;;11.20;9.50;;;;;;;-145.23;100.00;58621.06;5041840;28;20405;-54
2022/12/24 02:32:00;;;;;;;12.27;9.03;;;;;;;-145.23;100.00;58621.06;5039274;28;20792;-53
2022/12/24 02:34:30;;;;;;;10.97;7.30;;;;;;;-145.23;100.00;58621.06;5040344;28;20232;-53
2022/12/24 02:37:00;;;;;;;10.27;8.00;;;;;;;-145.23;100.00;58621.06;5039524;28;21107;-55
2022/12/24 02:39:30;;;;;;;10.30;7.67;;;;;;;-145.23;100.00;58621.06;5040944;28;20228;-54
2022/12/24 02:42:07;;;;;;;12.87;8.27;;;;;;;-145.23;100.00;58621.06;5040273;28;20270;-53
2022/12/24 02:44:38;;;;;;;10.40;8.13;;;;;;;-145.23;100.00;58621.06;5040530;28;20236;-54
2022/12/24 02:47:07;;;;;;;11.33;8.03;;;;;;;-145.23;100.00;58621.06;5037116;28;20232;-54
2022/12/24 02:49:35;;;;;;;11.77;7.93;;;;;;;-145.23;100.00;58621.06;5038141;28;20955;-54
2022/12/24 02:52:02;;;;;;;9.00;6.83;;;;;;;-145.23;100.00;58621.06;5042227;28;20239;-53
2022/12/24 02:54:29;;;;;;;11.23;8.53;;;;;;;-145.23;100.00;58621.06;5038634;28;20330;-53
2022/12/24 02:57:06;;;;;;;12.40;8.73;;;;;;;-145.23;100.00;58621.06;5038703;28;20576;-54
2022/12/24 02:59:48;;;;;;;11.77;8.53;;;;;;;-145.23;100.00;58621.06;5040185;28;20322;-53
2022/12/24 03:02:24;;;;;;;10.87;8.27;;;;;;;-145.23;100.00;58621.06;5050484;28;20284;-55
2022/12/24 03:04:59;;;;;;;13.63;8.80;;;;;;;-145.23;100.00;58621.06;5054325;28;21717;-55
2022/12/24 03:07:31;;;;;;;9.80;8.27;;;;;;;-145.23;100.00;58621.06;5048386;28;20227;-55
2022/12/24 03:10:06;;;;;;;11.80;8.33;;;;;;;-145.23;100.00;58621.06;5042066;28;20274;-54
2022/12/24 03:12:36;;;;;;;13.07;9.50;;;;;;;-145.23;100.00;58621.06;5049813;28;20297;-55
2022/12/24 03:15:05;;;;;;;9.13;7.80;;;;;;;-145.23;100.00;58621.06;5043742;28;20232;-53
2022/12/24 03:17:35;;;;;;;14.20;9.70;;;;;;;-145.23;100.00;58621.06;5041767;28;20748;-53
2022/12/24 03:20:02;;;;;;;10.67;9.57;;;;;;;-145.23;100.00;58621.06;5042464;28;20311;-55
2022/12/24 03:22:30;;;;;;;8.90;7.27;;;;;;;-145.23;100.00;58621.06;5041689;28;20235;-54
2022/12/24 03:24:57;;;;;;;17.93;8.37;;;;;;;-145.23;100.00;58621.06;5038307;28;20282;-53
2022/12/24 03:27:26;;;;;;;10.00;8.40;;;;;;;-145.23;100.00;58621.06;5041051;28;20710;-54
2022/12/24 03:29:53;;;;;;;15.97;9.10;;;;;;;-145.23;100.00;58621.06;5043434;28;20238;-53
2022/12/24 03:32:24;;;;;;;9.30;8.30;;;;;;;-145.23;100.00;58621.06;5053379;28;20243;-52
2022/12/24 03:34:52;;;;;;;10.80;9.33;;;;;;;-145.23;100.00;58621.06;5055178;28;20270;-53
2022/12/24 03:37:19;;;;;;;13.70;8.97;;;;;;;-145.23;100.00;58621.06;5055029;28;20235;-56
2022/12/24 03:39:46;;;;;;;12.53;9.97;;;;;;;-145.23;100.00;58621.06;5052121;28;20273;-54
2022/12/24 03:42:13;;;;;;;14.07;8.63;;;;;;;-145.23;100.00;58621.06;5046955;28;20319;-58
2022/12/24 03:44:40;;;;;;;11.70;9.37;;;;;;;-145.23;100.00;58621.06;5045558;28;20231;-53
2022/12/24 03:47:07;;;;;;;12.60;9.53;;;;;;;-145.23;100.00;58621.06;5045334;28;20224;-54
2022/12/24 03:49:34;;;;;;;11.30;8.80;;;;;;;-145.23;100.00;58621.06;5046614;28;20232;-53
2022/12/24 03:52:03;;;;;;;8.80;7.40;;;;;;;-145.23;100.00;58621.06;5040653;28;20711;-53
2022/12/24 03:54:30;;;;;;;10.57;8.77;;;;;;;-145.23;100.00;58621.06;5041717;28;20839;-53
2022/12/24 03:56:57;;;;;;;12.20;8.23;;;;;;;-145.23;100.00;58621.06;5037673;28;20635;-53
2022/12/24 03:59:24;;;;;;;12.20;9.37;;;;;;;-145.23;100.00;58621.06;5035390;28;20235;-53
2022/12/24 04:01:50;;;;;;;11.43;8.30;;;;;;;-145.23;100.00;58621.06;5039365;28;20615;-54
2022/12/24 04:04:17;;;;;;;11.77;8.23;;;;;;;-145.23;100.00;58621.06;5037639;28;20234;-52
2022/12/24 04:06:44;;;;;;;13.13;8.63;;;;;;;-145.23;100.00;58621.06;5039078;28;20587;-53
2022/12/24 04:09:11;;;;;;;12.40;9.30;;;;;;;-145.23;100.00;58621.06;5041060;28;20334;-54
2022/12/24 04:11:38;;;;;;;12.17;8.47;;;;;;;-145.23;100.00;58621.06;5040855;28;20327;-56
2022/12/24 04:14:05;;;;;;;9.60;7.67;;;;;;;-145.23;100.00;58621.06;5041619;28;20235;-53
2022/12/24 04:16:31;;;;;;;9.43;7.57;;;;;;;-145.23;100.00;58621.06;5039401;28;20262;-54
2022/12/24 04:18:58;;;;;;;9.63;8.23;;;;;;;-145.23;100.00;58621.06;5038764;28;20232;-53
2022/12/24 04:21:24;;;;;;;10.63;7.80;;;;;;;-145.23;100.00;58621.06;5039964;28;20231;-53
2022/12/24 04:23:51;;;;;;;12.90;8.37;;;;;;;-145.23;100.00;58621.06;5041554;28;20239;-53
2022/12/24 04:26:19;;;;;;;9.87;7.67;;;;;;;-145.23;100.00;58621.06;5036972;28;20776;-54
2022/12/24 04:28:45;;;;;;;9.93;7.50;;;;;;;-145.23;100.00;58621.06;5040500;28;20220;-53
2022/12/24 04:31:13;;;;;;;9.83;7.47;;;;;;;-145.23;100.00;58621.06;5041365;28;20224;-54
2022/12/24 04:33:40;;;;;;;9.27;7.40;;;;;;;-145.23;100.00;58621.06;5040569;28;20614;-55
2022/12/24 04:36:08;;;;;;;10.63;7.67;;;;;;;-145.23;100.00;58621.06;5038373;28;20350;-54
2022/12/24 04:38:35;;;;;;;8.07;7.07;;;;;;;-145.23;100.00;58621.06;5039492;28;20223;-54
2022/12/24 04:41:03;;;;;;;8.20;6.83;;;;;;;-145.23;100.00;58621.06;5039991;28;20230;-53
2022/12/24 04:43:31;;;;;;;8.50;7.60;;;;;;;-145.23;100.00;58621.06;5036326;28;20244;-53
2022/12/24 04:46:05;;;;;;;8.90;7.37;;;;;;;-145.23;100.00;58621.06;5039269;28;20235;-54
2022/12/24 04:48:31;;;;;;;8.20;6.43;;;;;;;-145.23;100.00;58621.06;5040611;28;20219;-54
2022/12/24 04:50:58;;;;;;;10.20;8.33;;;;;;;-145.23;100.00;58621.06;5037903;28;20732;-54
2022/12/24 04:53:24;;;;;;;9.07;7.33;;;;;;;-145.23;100.00;58621.06;5040351;28;20242;-54
2022/12/24 04:55:51;;;;;;;11.23;7.13;;;;;;;-145.23;100.00;58621.06;5040636;28;20613;-54
2022/12/24 04:58:18;;;;;;;10.40;8.13;;;;;;;-145.23;100.00;58621.06;5037700;28;20770;-55
2022/12/24 05:00:46;;;;;;;8.73;7.60;;;;;;;-145.23;100.00;58621.06;5040638;28;20232;-53
2022/12/24 05:03:12;;;;;;;8.17;7.17;;;;;;;-145.23;100.00;58621.06;5039299;28;20815;-53
2022/12/24 05:05:39;;;;;;;9.13;7.90;;;;;;;-145.23;100.00;58621.06;5039659;28;20244;-54
2022/12/24 05:08:06;;;;;;;9.27;7.47;;;;;;;-145.23;100.00;58621.06;5037766;28;20228;-53
2022/12/24 05:10:32;;;;;;;8.67;6.97;;;;;;;-145.23;100.00;58621.06;5038870;28;20884;-53
2022/12/24 05:12:59;;;;;;;9.20;7.53;;;;;;;-145.23;100.00;58621.06;5037773;28;20228;-53
2022/12/24 05:15:26;;;;;;;9.60;7.40;;;;;;;-145.23;100.00;58621.06;5040172;28;20227;-53
2022/12/24 05:17:54;;;;;;;11.27;9.20;;;;;;;-145.23;100.00;58621.06;5038243;28;20258;-54
2022/12/24 05:20:20;;;;;;;8.80;6.87;;;;;;;-145.23;100.00;58621.06;5039145;28;20242;-53
2022/12/24 05:28:17;;;;;;;8.63;7.73;;;;;;;-145.23;100.00;58621.06;5034771;28;20267;-54
2022/12/24 05:30:44;;;;;;;8.47;7.47;;;;;;;-145.23;100.00;58621.06;5038327;28;20231;-54
2022/12/24 05:33:12;;;;;;;8.20;6.60;;;;;;;-145.23;100.00;58621.06;5033883;28;20286;-54
2022/12/24 05:35:39;;;;;;;10.40;8.43;;;;;;;-145.23;100.00;58621.06;5036746;28;20502;-53
2022/12/24 05:38:06;;;;;;;11.07;7.57;;;;;;;-145.23;100.00;58621.06;5040505;28;20239;-54
2022/12/24 05:40:33;;;;;;;10.63;7.13;;;;;;;-145.23;100.00;58621.06;5048845;28;20235;-61
2022/12/24 05:43:00;;;;;;;10.07;8.43;;;;;;;-145.23;100.00;58621.06;5043158;28;20290;-54
2022/12/24 05:45:27;;;;;;;10.37;8.03;;;;;;;-145.23;100.00;58621.06;5052867;28;20242;-54
2022/12/24 05:47:54;;;;;;;9.20;7.67;;;;;;;-145.23;100.00;58621.06;5044695;28;20236;-54
2022/12/24 05:50:22;;;;;;;10.03;8.33;;;;;;;-145.23;100.00;58621.06;5041728;28;20993;-53
2022/12/24 05:52:48;;;;;;;9.83;8.50;;;;;;;-145.23;100.00;58621.06;5038010;28;20263;-54
2022/12/24 05:55:15;;;;;;;10.27;7.30;;;;;;;-145.23;100.00;58621.06;5043925;28;20224;-55
2022/12/24 05:57:42;;;;;;;9.23;7.53;;;;;;;-145.23;100.00;58621.06;5037724;28;20315;-55
2022/12/24 06:00:10;;;;;;;10.83;8.37;;;;;;;-145.23;100.00;58621.06;5042740;28;20357;-54
2022/12/24 06:02:37;;;;;;;9.67;8.57;;;;;;;-145.23;100.00;58621.06;5044362;28;20228;-54
2022/12/24 06:05:04;;;;;;;10.27;8.50;;;;;;;-145.23;100.00;58621.06;5042136;28;20228;-54
2022/12/24 06:07:32;;;;;;;9.67;8.13;;;;;;;-145.23;100.00;58621.06;5036020;28;20312;-53
2022/12/24 06:09:59;;;;;;;9.03;8.13;;;;;;;-145.23;100.00;58621.06;5042254;28;20236;-54
2022/12/24 06:12:26;;;;;;;8.97;8.07;;;;;;;-145.23;100.00;58621.06;5043771;28;20342;-53
2022/12/24 06:14:53;;;;;;;9.03;7.93;;;;;;;-145.23;100.00;58621.06;5041760;28;20266;-54
2022/12/24 06:17:20;;;;;;;9.37;8.37;;;;;;;-145.23;100.00;58621.06;5042822;28;20270;-54
2022/12/24 06:19:47;;;;;;;9.60;8.43;;;;;;;-145.23;100.00;58621.06;5041296;28;20235;-54
2022/12/24 06:22:13;;;;;;;10.90;8.87;;;;;;;-145.23;100.00;58621.06;5042569;28;20264;-54
2022/12/24 06:24:42;;;;;;;10.13;9.10;;;;;;;-145.23;100.00;58621.06;5041722;28;20261;-54
2022/12/24 06:27:09;;;;;;;11.57;9.70;;;;;;;-145.23;100.00;58621.06;5041852;28;20260;-53
2022/12/24 06:29:35;;;;;;;11.00;9.30;;;;;;;-145.23;100.00;58621.06;5043574;28;20231;-54
2022/12/24 06:32:03;;;;;;;12.33;9.20;;;;;;;-145.23;100.00;58621.06;5043140;28;20252;-54
2022/12/24 06:34:29;;;;;;;10.27;9.10;;;;;;;-145.23;100.00;58621.06;5045621;28;20247;-53
2022/12/24 06:36:56;;;;;;;12.03;9.80;;;;;;;-145.23;100.00;58621.06;5043925;28;20238;-55
2022/12/24 06:39:24;;;;;;;15.83;12.90;;;;;;;-145.23;100.00;58621.06;5044424;28;20228;-54
2022/12/24 06:41:53;;;;;;;11.80;8.77;;;;;;;-145.23;100.00;58621.06;5041780;28;20764;-54
2022/12/24 06:44:20;;;;;;;10.17;9.20;;;;;;;-145.23;100.00;58621.06;5043512;28;20232;-55
2022/12/24 06:46:46;;;;;;;11.50;9.10;;;;;;;-145.23;100.00;58621.06;5045209;28;20243;-55
2022/12/24 06:49:13;;;;;;;11.50;10.30;;;;;;;-145.23;100.00;58621.06;5037684;28;20714;-55
2022/12/24 06:51:40;;;;;;;11.47;9.87;;;;;;;-145.23;100.00;58621.06;5042676;28;20690;-54
2022/12/24 06:54:07;;;;;;;11.50;8.93;;;;;;;-145.23;100.00;58621.06;5041216;28;20224;-55
2022/12/24 06:56:34;;;;;;;11.90;9.03;;;;;;;-145.23;100.00;58621.06;5040464;28;20242;-55
2022/12/24 06:59:02;;;;;;;9.63;8.40;;;;;;;-145.23;100.00;58621.06;5044323;28;20264;-54
2022/12/24 07:01:29;;;;;;;10.80;8.27;;;;;;;-145.23;100.00;58621.06;5040704;28;20232;-54
2022/12/24 07:03:56;;;;;;;9.93;8.13;;;;;;;-145.23;100.00;58621.06;5043430;28;20228;-54
2022/12/24 07:06:26;;;;;;;9.70;8.17;;;;;;;-145.23;100.00;58621.06;5042592;28;20760;-54
2022/12/24 07:08:53;;;;;;;9.90;8.47;;;;;;;-145.23;100.00;58621.06;5044411;28;20240;-53
2022/12/24 07:11:20;;;;;;;10.90;9.77;;;;;;;-145.23;100.00;58621.06;5041079;28;20235;-56
2022/12/24 07:13:47;;;;;;;12.17;9.90;;;;;;;-145.23;100.00;58621.06;5042363;28;20254;-54
2022/12/24 07:16:15;;;;;;;13.13;9.60;;;;;;;-145.23;100.00;58621.06;5041868;28;20731;-54
2022/12/24 07:18:42;;;;;;;14.87;9.40;;;;;;;-145.23;100.00;58621.06;5043263;28;20776;-53
2022/12/24 07:21:09;;;;;;;11.03;9.87;;;;;;;-145.23;100.00;58621.06;5044805;28;20245;-54
2022/12/24 07:23:36;;;;;;;11.93;9.33;;;;;;;-145.23;100.00;58621.06;5044757;28;20331;-56
2022/12/24 07:26:05;;;;;;;14.27;9.60;;;;;;;-145.23;100.00;58621.06;5035224;28;20238;-53
2022/12/24 07:28:31;;;;;;;9.17;8.10;;;;;;;-145.23;100.00;58621.06;5044567;28;20247;-53
2022/12/24 07:31:00;;;;;;;10.47;8.90;;;;;;;-145.23;100.00;58621.06;5044388;28;20282;-53
2022/12/24 07:33:28;;;;;;;10.67;8.57;;;;;;;-145.23;100.00;58621.06;5043495;28;20301;-54
2022/12/24 07:36:00;;;;;;;9.90;8.47;;;;;;;-145.23;100.00;58621.06;5044404;28;20304;-55
2022/12/24 07:38:27;;;;;;;9.40;7.87;;;;;;;-145.23;100.00;58621.06;5046080;28;20227;-54
2022/12/24 07:40:54;;;;;;;8.87;7.87;;;;;;;-145.23;100.00;58621.06;5044855;28;20369;-54
2022/12/24 07:43:22;;;;;;;9.90;8.37;;;;;;;-145.23;100.00;58621.06;5048819;28;20315;-54
2022/12/24 07:45:49;;;;;;;9.97;8.37;;;;;;;-145.23;100.00;58621.06;5043730;28;20244;-53
2022/12/24 07:48:16;;;;;;;10.73;8.47;;;;;;;-145.23;100.00;58621.06;5041741;28;20235;-54
2022/12/24 07:50:44;;;;;;;9.93;8.23;;;;;;;-145.23;100.00;58621.06;5041836;28;20263;-53
2022/12/24 07:53:11;;;;;;;10.93;8.73;;;;;;;-145.23;100.00;58621.06;5036707;28;20235;-53
2022/12/24 07:55:38;;;;;;;11.43;9.53;;;;;;;-145.23;100.00;58621.06;5040405;28;20714;-53
2022/12/24 07:58:05;;;;;;;11.93;10.77;;;;;;;-145.23;100.00;58621.06;5044066;28;20662;-53
2022/12/24 08:00:32;;;;;;;10.40;7.87;;;;;;;-145.23;100.00;58621.06;5042982;28;20235;-53
2022/12/24 08:03:00;;;;;;;10.13;8.83;;;;;;;-145.23;100.00;58621.06;5042601;28;20255;-54
2022/12/24 08:05:27;;;;;;;10.83;8.97;;;;;;;-145.23;100.00;58621.06;5041982;28;20959;-53
2022/12/24 08:07:55;;;;;;;12.43;8.93;;;;;;;-145.23;100.00;58621.06;5042593;28;20822;-55
2022/12/24 08:10:22;;;;;;;11.43;8.80;;;;;;;-145.23;100.00;58621.06;5040890;28;20235;-55
2022/12/24 08:12:49;;;;;;;10.33;8.30;;;;;;;-145.23;100.00;58621.06;5044762;28;20250;-54
2022/12/24 08:15:16;;;;;;;10.37;8.10;;;;;;;-145.23;100.00;58621.06;5041670;28;20235;-56
2022/12/24 08:17:44;;;;;;;9.30;8.03;;;;;;;-145.23;100.00;58621.06;5041429;28;20242;-54
2022/12/24 08:20:11;;;;;;;12.07;9.67;;;;;;;-145.23;100.00;58621.06;5042950;28;20236;-53
2022/12/24 08:22:38;;;;;;;11.87;8.30;;;;;;;-145.23;100.00;58621.06;5041054;28;20240;-54
2022/12/24 08:25:07;;;;;;;10.10;7.87;;;;;;;-145.23;100.00;58621.06;5041871;28;20269;-53
2022/12/24 08:27:34;;;;;;;9.83;8.83;;;;;;;-145.23;100.00;58621.06;5042012;28;20255;-54
2022/12/24 08:30:01;;;;;;;14.67;10.13;;;;;;;-145.23;100.00;58621.06;5043335;28;20259;-53
2022/12/24 08:32:28;;;;;;;9.60;8.00;;;;;;;-145.23;100.00;58621.06;5040668;28;20224;-54
2022/12/24 08:34:54;;;;;;;14.80;10.60;;;;;;;-145.23;100.00;58621.06;5043156;28;20320;-53
2022/12/24 08:37:21;;;;;;;10.83;8.60;;;;;;;-145.23;100.00;58621.06;5037117;28;20236;-54
2022/12/24 08:39:48;;;;;;;12.73;9.63;;;;;;;-145.23;100.00;58621.06;5047308;28;20620;-55
2022/12/24 08:42:17;;;;;;;11.73;8.67;;;;;;;-145.23;100.00;58621.06;5051090;28;20242;-54
2022/12/24 08:44:43;;;;;;;13.23;10.33;;;;;;;-145.23;100.00;58621.06;5043554;28;20255;-54
2022/12/24 08:47:10;;;;;;;15.47;10.40;;;;;;;-145.23;100.00;58621.06;5043996;28;20334;-55
2022/12/24 08:49:38;;;;;;;9.87;8.57;;;;;;;-145.23;100.00;58621.06;5038599;28;20224;-53
2022/12/24 08:52:05;;;;;;;11.00;9.43;;;;;;;-145.23;100.00;58621.06;5044584;28;20400;-54
2022/12/24 08:54:32;;;;;;;12.80;9.43;;;;;;;-145.23;100.00;58621.06;5044067;28;20717;-54
2022/12/24 08:56:59;;;;;;;9.63;7.93;;;;;;;-145.23;100.00;58621.06;5039139;28;20282;-54
2022/12/24 08:59:27;;;;;;;11.87;8.33;;;;;;;-145.23;100.00;58621.06;5040967;28;20239;-54
2022/12/24 09:01:54;;;;;;;13.27;9.97;;;;;;;-145.23;100.00;58621.06;5038714;28;20331;-54
2022/12/24 09:04:21;;;;;;;12.90;8.63;;;;;;;-145.23;100.00;58621.06;5041084;28;20232;-54
2022/12/24 09:06:48;;;;;;;11.97;8.83;;;;;;;-145.23;100.00;58621.06;5038017;28;20638;-54
2022/12/24 09:09:15;;;;;;;10.27;8.67;;;;;;;-145.23;100.00;58621.06;5041094;28;20236;-54
2022/12/24 09:11:42;;;;;;;12.97;8.30;;;;;;;-145.23;100.00;58621.06;5035615;28;20851;-54
2022/12/24 09:14:09;;;;;;;9.17;8.07;;;;;;;-145.23;100.00;58621.06;5043254;28;20238;-55
2022/12/24 09:16:37;;;;;;;10.00;8.93;;;;;;;-145.23;100.00;58621.06;5039462;28;20228;-54
2022/12/24 09:19:04;;;;;;;11.00;9.80;;;;;;;-145.23;100.00;58621.06;5040057;28;20243;-54
2022/12/24 09:21:31;;;;;;;13.93;11.10;;;;;;;-145.23;100.00;58621.06;5041069;28;20223;-55
2022/12/24 09:24:00;;;;;;;13.17;10.07;;;;;;;-145.23;100.00;58621.06;5040858;28;20308;-54
2022/12/24 09:26:28;;;;;;;13.50;9.33;;;;;;;-145.23;100.00;58621.06;5044631;28;20613;-54
2022/12/24 09:28:57;;;;;;;12.10;9.83;;;;;;;-145.23;100.00;58621.06;5040825;28;20220;-54
2022/12/24 09:31:24;;;;;;;14.37;10.20;;;;;;;-145.23;100.00;58621.06;5042728;28;20235;-53
2022/12/24 09:33:53;;;;;;;11.90;8.90;;;;;;;-145.23;100.00;58621.06;5046647;28;20254;-54
2022/12/24 09:36:20;;;;;;;13.13;10.10;;;;;;;-145.23;100.00;58621.06;5044718;28;20240;-53
2022/12/24 09:38:47;;;;;;;12.73;10.33;;;;;;;-145.23;100.00;58621.06;5042284;28;20231;-53
2022/12/24 09:41:18;;;;;;;12.50;10.53;;;;;;;-145.23;100.00;58621.06;5043131;28;20254;-54
2022/12/24 09:43:47;;;;;;;12.40;9.43;;;;;;;-145.23;100.00;58621.06;5043522;28;20702;-54
2022/12/24 09:46:20;;;;;;;13.23;9.57;;;;;;;-145.23;100.00;58621.06;5042394;28;20647;-54
2022/12/24 09:48:49;;;;;;;13.83;10.17;;;;;;;-145.23;100.00;58621.06;5045118;28;20232;-53
2022/12/24 09:51:22;;;;;;;14.27;10.30;;;;;;;-145.23;100.00;58621.06;5043508;28;20306;-54
2022/12/24 09:53:52;;;;;;;11.37;9.87;;;;;;;-145.23;100.00;58621.06;5037359;28;20243;-54
2022/12/24 09:56:21;;;;;;;12.17;9.30;;;;;;;-145.23;100.00;58621.06;5050204;28;20240;-53
2022/12/24 09:58:51;;;;;;;14.27;10.87;;;;;;;-145.23;100.00;58621.06;5040582;28;20247;-53
2022/12/24 10:01:18;;;;;;;12.80;11.03;;;;;;;-145.23;100.00;58621.06;5045069;28;20713;-53
2022/12/24 10:03:46;;;;;;;12.60;10.83;;;;;;;-145.23;100.00;58621.06;5045420;28;20243;-54
2022/12/24 10:06:15;;;;;;;14.77;11.07;;;;;;;-145.23;100.00;58621.06;5044068;28;20733;-54
2022/12/24 10:08:56;;;;;;;12.23;9.90;;;;;;;-145.23;100.00;58621.06;5044361;28;20231;-54
2022/12/24 10:11:27;;;;;;;14.40;10.23;;;;;;;-145.23;100.00;58621.06;5044575;28;20781;-53
2022/12/24 10:14:04;;;;;;;13.33;10.43;;;;;;;-145.23;100.00;58621.06;5042005;28;20730;-54
2022/12/24 10:16:40;;;;;;;14.63;10.40;;;;;;;-145.23;100.00;58621.06;5036111;28;20258;-53
2022/12/24 10:19:13;;;;;;;13.97;11.30;;;;;;;-145.23;100.00;58621.06;5039264;28;20230;-54
2022/12/24 10:21:49;;;;;;;15.50;11.03;;;;;;;-145.23;100.00;58621.06;5044447;28;20235;-55
2022/12/24 10:24:22;;;;;;;14.87;11.87;;;;;;;-145.23;100.00;58621.06;5043590;28;20239;-54
2022/12/24 10:26:53;;;;;;;15.50;11.33;;;;;;;-145.23;100.00;58621.06;5041056;28;20235;-54
2022/12/24 10:29:24;;;;;;;12.40;10.73;;;;;;;-145.23;100.00;58621.06;5045979;28;20230;-54
2022/12/24 10:32:06;;;;;;;14.27;11.03;;;;;;;-145.23;100.00;58621.06;5049550;28;20243;-55
2022/12/24 10:34:36;;;;;;;12.00;10.33;;;;;;;-145.23;100.00;58621.06;5039280;28;20324;-54
2022/12/24 10:37:03;;;;;;;14.57;12.07;;;;;;;-145.23;100.00;58621.06;5045263;28;20612;-53
2022/12/24 10:39:32;;;;;;;13.77;11.17;;;;;;;-145.23;100.00;58621.06;5047324;28;20586;-53
2022/12/24 10:42:00;;;;;;;14.13;10.47;;;;;;;-145.23;100.00;58621.06;5037832;28;20247;-54
2022/12/24 10:44:29;;;;;;;14.97;11.23;;;;;;;-145.23;100.00;58621.06;5043210;28;20685;-54
2022/12/24 10:46:56;;;;;;;12.70;9.80;;;;;;;-145.23;100.00;58621.06;5040960;28;20235;-54
2022/12/24 10:49:31;;;;;;;11.73;9.90;;;;;;;-145.23;100.00;58621.06;5044845;28;20235;-54
2022/12/24 10:52:00;;;;;;;11.93;10.07;;;;;;;-145.23;100.00;58621.06;5037920;28;20236;-55
2022/12/24 10:54:33;;;;;;;14.67;10.83;;;;;;;-145.23;100.00;58621.06;5044135;28;20224;-55
2022/12/24 10:57:02;;;;;;;12.23;10.30;;;;;;;-145.23;100.00;58621.06;5042210;28;20882;-53
2022/12/24 10:59:31;;;;;;;13.63;11.80;;;;;;;-145.23;100.00;58621.06;5042152;28;20570;-54
2022/12/24 11:01:59;;;;;;;15.30;10.30;;;;;;;-145.23;100.00;58621.06;5041322;28;20236;-54
2022/12/24 11:04:27;;;;;;;11.53;9.10;;;;;;;-145.23;100.00;58621.06;5044938;28;20238;-55
2022/12/24 11:06:56;;;;;;;10.67;9.57;;;;;;;-145.23;100.00;58621.06;5039909;28;20690;-54
2022/12/24 11:09:24;;;;;;;9.63;8.63;;;;;;;-145.23;100.00;58621.06;5042683;28;20235;-54
2022/12/24 11:11:51;;;;;;;10.70;8.87;;;;;;;-145.23;100.00;58621.06;5039344;28;20301;-56
2022/12/24 11:14:20;;;;;;;10.90;9.27;;;;;;;-145.23;100.00;58621.06;5038071;28;20254;-56
2022/12/24 11:16:50;;;;;;;10.57;8.30;;;;;;;-145.23;100.00;58621.06;5043234;28;20228;-55